ドーハ の空港の天気 - METARとTAF

ドーハ国際空港 ( OTBD / DOH ) - カタール ドーハ
飛行場実況気象(Metar)
観測時間02/27 23:00 AST (02/27 20:00 UTC)
風向・風速北西 2m/s
視程10km以上
天気現象
なし
気温18℃
湿度42%
気圧1018hPa
METAROTBD 272000Z 32003KT CAVOK 18/05 Q1018 NOSIG
過去の天気等 Google飛行場航空写真 Wunderground天気予報

過去48時間のMETAR

飛行場予報(TAF)
発表時間: 2/27 20:00 AST (2/27 17:00 UTC)
予報対象時間: 27日21時 AST ~ 1日3時 AST
風向・風速西北西 3m/s
視程10km以上
なし
28日11時 AST ~ 28日13時 AST に徐々に
風向・風速北東 4m/s
28日21時 AST ~ 28日23時 AST に徐々に
風向・風速不定 2m/s
TAF OTBD 271700Z 2718/2824 29005KT CAVOK
BECMG 2808/2810 05008KT
BECMG 2818/2820 VRB03KT